createdAt,value
2017-09-27T00:02:19.182Z,16.70
2017-09-27T00:04:48.228Z,20.80
2017-09-27T00:07:17.278Z,22.10
2017-09-27T00:09:46.134Z,14.97
2017-09-27T00:12:15.022Z,19.97
2017-09-27T00:14:43.912Z,27.37
2017-09-27T00:17:12.779Z,26.80
2017-09-27T00:19:41.700Z,15.93
2017-09-27T00:22:10.741Z,20.40
2017-09-27T00:24:39.638Z,26.27
2017-09-27T00:27:08.517Z,21.03
2017-09-27T00:29:37.371Z,29.50
2017-09-27T00:32:06.267Z,22.27
2017-09-27T00:34:35.136Z,21.90
2017-09-27T00:37:04.062Z,17.27
2017-09-27T00:39:32.960Z,16.43
2017-09-27T00:42:01.813Z,19.40
2017-09-27T00:44:30.752Z,21.90
2017-09-27T00:46:59.606Z,15.57
2017-09-27T00:49:28.469Z,17.20
2017-09-27T00:51:57.382Z,18.27
2017-09-27T00:54:26.272Z,20.13
2017-09-27T00:56:55.190Z,17.80
2017-09-27T00:59:24.083Z,18.23
2017-09-27T01:01:53.012Z,23.03
2017-09-27T01:04:21.902Z,24.03
2017-09-27T01:06:50.788Z,20.00
2017-09-27T01:09:19.694Z,29.83
2017-09-27T01:11:48.568Z,22.43
2017-09-27T01:14:17.424Z,18.57
2017-09-27T01:16:46.304Z,19.63
2017-09-27T01:19:15.154Z,23.40
2017-09-27T01:21:44.032Z,15.90
2017-09-27T01:24:12.882Z,22.30
2017-09-27T01:26:41.754Z,19.30
2017-09-27T01:29:10.626Z,24.53
2017-09-27T01:31:39.512Z,20.60
2017-09-27T01:34:08.476Z,22.53
2017-09-27T01:36:37.345Z,18.97
2017-09-27T01:39:06.208Z,20.73
2017-09-27T01:41:35.120Z,23.70
2017-09-27T01:44:03.988Z,27.60
2017-09-27T01:46:32.846Z,33.20
2017-09-27T01:49:01.719Z,22.00
2017-09-27T01:51:30.631Z,19.63
2017-09-27T01:53:59.519Z,21.83
2017-09-27T01:56:28.364Z,13.67
2017-09-27T01:58:57.205Z,19.27
2017-09-27T02:01:26.144Z,22.40
2017-09-27T02:03:55.023Z,20.07
2017-09-27T02:06:23.935Z,23.80
2017-09-27T02:08:52.779Z,27.47
2017-09-27T02:11:21.671Z,20.00
2017-09-27T02:13:50.525Z,15.07
2017-09-27T02:16:19.390Z,18.50
2017-09-27T02:18:48.270Z,20.47
2017-09-27T02:21:17.127Z,24.90
2017-09-27T02:23:46.177Z,19.40
2017-09-27T02:26:15.043Z,21.10
2017-09-27T02:28:43.929Z,17.00
2017-09-27T02:31:12.800Z,21.67
2017-09-27T02:33:41.689Z,25.80
2017-09-27T02:36:10.711Z,27.47
2017-09-27T02:38:39.575Z,22.87
2017-09-27T02:41:08.435Z,30.20
2017-09-27T02:43:37.326Z,31.73
2017-09-27T02:46:06.217Z,22.83
2017-09-27T02:48:35.110Z,26.23
2017-09-27T02:51:03.967Z,30.10
2017-09-27T02:53:32.840Z,25.70
2017-09-27T02:56:01.741Z,34.83
2017-09-27T02:58:30.605Z,26.23
2017-09-27T03:00:59.702Z,29.90
2017-09-27T03:03:28.587Z,31.30
2017-09-27T03:05:57.455Z,35.93
2017-09-27T03:08:26.346Z,34.40
2017-09-27T03:10:55.208Z,45.10
2017-09-27T03:13:24.182Z,25.83
2017-09-27T03:15:53.097Z,28.93
2017-09-27T03:18:21.952Z,24.53
2017-09-27T03:20:50.854Z,25.87
2017-09-27T03:23:19.717Z,39.93
2017-09-27T03:25:48.887Z,42.03
2017-09-27T03:28:17.773Z,26.90
2017-09-27T03:30:46.647Z,35.90
2017-09-27T03:33:15.526Z,31.43
2017-09-27T03:35:44.390Z,26.90
2017-09-27T03:38:13.292Z,24.63
2017-09-27T03:40:42.137Z,25.97
2017-09-27T03:43:10.992Z,33.80
2017-09-27T03:45:39.866Z,29.80
2017-09-27T03:48:08.718Z,29.07
2017-09-27T03:50:37.663Z,24.00
2017-09-27T03:53:06.512Z,30.17
2017-09-27T03:55:35.362Z,24.67
2017-09-27T03:58:04.251Z,26.37
2017-09-27T04:00:33.126Z,28.07
2017-09-27T04:03:02.022Z,27.13
2017-09-27T04:05:30.878Z,30.37
2017-09-27T04:07:59.799Z,22.60
2017-09-27T04:10:28.663Z,31.17
2017-09-27T04:12:58.274Z,25.77
2017-09-27T04:15:27.153Z,31.10
2017-09-27T04:17:56.028Z,28.83
2017-09-27T04:20:24.932Z,27.23
2017-09-27T04:22:53.806Z,26.97
2017-09-27T04:25:22.685Z,28.50
2017-09-27T04:27:52.174Z,25.43
2017-09-27T04:30:21.038Z,34.07
2017-09-27T04:32:49.924Z,27.37
2017-09-27T04:35:18.783Z,29.27
2017-09-27T04:37:47.670Z,29.70
2017-09-27T04:40:16.553Z,27.33
2017-09-27T04:42:45.416Z,25.80
2017-09-27T04:45:14.302Z,33.37
2017-09-27T04:47:43.186Z,28.80
2017-09-27T04:50:12.105Z,33.63
2017-09-27T04:52:40.960Z,32.43
2017-09-27T04:55:09.821Z,29.93
2017-09-27T04:57:38.716Z,33.87
2017-09-27T05:00:07.582Z,33.77
2017-09-27T05:02:36.475Z,24.30
2017-09-27T05:05:05.346Z,47.30
2017-09-27T05:07:34.212Z,22.33
2017-09-27T05:10:03.086Z,24.10
2017-09-27T05:12:31.955Z,23.80
2017-09-27T05:15:00.830Z,21.97
2017-09-27T05:17:29.707Z,21.50
2017-09-27T05:19:58.592Z,26.93
2017-09-27T05:22:27.471Z,24.57
2017-09-27T05:24:56.348Z,24.03
2017-09-27T05:27:25.243Z,22.60
2017-09-27T05:29:54.150Z,23.80
2017-09-27T05:32:23.020Z,23.23
2017-09-27T05:34:51.942Z,16.90
2017-09-27T05:37:20.863Z,23.83
2017-09-27T05:39:49.734Z,22.40
2017-09-27T05:42:18.589Z,24.37
2017-09-27T05:44:47.484Z,32.97
2017-09-27T05:47:16.331Z,26.43
2017-09-27T05:49:45.235Z,36.67
2017-09-27T05:52:14.086Z,28.90
2017-09-27T05:54:42.982Z,42.03
2017-09-27T05:57:11.831Z,28.23
2017-09-27T05:59:40.722Z,32.97
2017-09-27T06:02:09.636Z,30.70
2017-09-27T06:04:38.544Z,24.63
2017-09-27T06:07:07.411Z,24.83
2017-09-27T06:09:36.551Z,19.23
2017-09-27T06:12:05.545Z,24.67
2017-09-27T06:14:34.461Z,19.57
2017-09-27T06:17:03.351Z,21.97
2017-09-27T06:19:32.995Z,20.70
2017-09-27T06:22:01.858Z,26.93
2017-09-27T06:24:30.742Z,31.57
2017-09-27T06:26:59.624Z,29.23
2017-09-27T06:29:28.515Z,29.60
2017-09-27T06:31:57.366Z,29.93
2017-09-27T06:34:26.282Z,28.53
2017-09-27T06:36:55.346Z,20.20
2017-09-27T06:39:25.211Z,25.30
2017-09-27T06:41:54.165Z,27.57
2017-09-27T06:44:23.123Z,30.07
2017-09-27T06:46:52.022Z,36.00
2017-09-27T06:49:20.922Z,31.33
2017-09-27T06:51:49.788Z,21.47
2017-09-27T06:54:18.886Z,25.23
2017-09-27T06:56:47.736Z,24.77
2017-09-27T06:59:16.663Z,23.27
2017-09-27T07:01:45.734Z,25.67
2017-09-27T07:04:14.848Z,30.57
2017-09-27T07:06:43.813Z,24.13
2017-09-27T07:09:12.693Z,21.40
2017-09-27T07:11:41.560Z,20.70
2017-09-27T07:14:10.472Z,24.23
2017-09-27T07:16:39.326Z,21.87
2017-09-27T07:19:08.218Z,22.10
2017-09-27T07:21:37.073Z,26.27
2017-09-27T07:24:05.918Z,16.70
2017-09-27T07:26:34.824Z,29.23
2017-09-27T07:29:03.715Z,32.37
2017-09-27T07:31:32.601Z,35.20
2017-09-27T07:34:01.498Z,54.27
2017-09-27T07:36:30.418Z,42.23
2017-09-27T07:38:59.283Z,29.37
2017-09-27T07:41:28.167Z,18.03
2017-09-27T07:43:57.049Z,15.03
2017-09-27T07:46:25.933Z,26.67
2017-09-27T07:48:54.815Z,21.60
2017-09-27T07:51:23.670Z,16.30
2017-09-27T07:53:52.517Z,22.87
2017-09-27T07:56:21.399Z,21.03
2017-09-27T07:58:50.278Z,23.97
2017-09-27T08:01:19.293Z,23.50
2017-09-27T08:03:48.172Z,20.30
2017-09-27T08:06:17.901Z,17.73
2017-09-27T08:08:46.769Z,22.10
2017-09-27T08:11:15.664Z,36.70
2017-09-27T08:13:44.520Z,23.73
2017-09-27T08:16:13.410Z,18.77
2017-09-27T08:18:42.274Z,27.37
2017-09-27T08:21:11.136Z,17.40
2017-09-27T08:23:40.011Z,17.77
2017-09-27T08:26:08.871Z,13.80
2017-09-27T08:28:37.758Z,27.73
2017-09-27T08:31:06.647Z,19.03
2017-09-27T08:33:35.515Z,17.90
2017-09-27T08:36:04.495Z,21.97
2017-09-27T08:38:33.357Z,17.03
2017-09-27T08:41:02.217Z,17.40
2017-09-27T08:43:31.088Z,21.47
2017-09-27T08:45:59.999Z,21.73
2017-09-27T08:48:28.899Z,15.17
2017-09-27T08:50:57.750Z,28.17
2017-09-27T08:53:26.634Z,17.23
2017-09-27T08:55:55.559Z,11.93
2017-09-27T08:58:24.411Z,24.67
2017-09-27T09:00:53.406Z,14.80
2017-09-27T09:03:22.275Z,49.80
2017-09-27T09:05:51.147Z,35.43
2017-09-27T09:08:20.071Z,47.43
2017-09-27T09:10:48.930Z,22.03
2017-09-27T09:13:17.819Z,17.87
2017-09-27T09:15:46.687Z,15.20
2017-09-27T09:18:15.551Z,18.43
2017-09-27T09:20:44.421Z,16.23
2017-09-27T09:23:13.296Z,20.77
2017-09-27T09:25:42.287Z,21.60
2017-09-27T09:28:11.171Z,14.33
2017-09-27T09:30:40.036Z,19.97
2017-09-27T09:33:08.903Z,21.20
2017-09-27T09:35:37.767Z,17.37
2017-09-27T09:38:06.668Z,18.13
2017-09-27T09:40:35.530Z,19.37
2017-09-27T09:43:04.390Z,15.03
2017-09-27T09:45:33.294Z,19.13
2017-09-27T09:48:02.146Z,17.27
2017-09-27T09:50:31.051Z,15.33
2017-09-27T09:52:59.914Z,15.97
2017-09-27T09:55:28.789Z,16.20
2017-09-27T09:57:57.709Z,13.83
2017-09-27T10:00:26.630Z,20.93
2017-09-27T10:02:55.704Z,13.27
2017-09-27T10:05:24.575Z,15.10
2017-09-27T10:07:53.484Z,11.00
2017-09-27T10:10:22.558Z,14.00
2017-09-27T10:12:51.441Z,15.20
2017-09-27T10:15:20.463Z,18.20
2017-09-27T10:17:49.325Z,17.23
2017-09-27T10:20:18.290Z,17.47
2017-09-27T10:22:47.489Z,18.80
2017-09-27T10:25:16.594Z,22.30
2017-09-27T10:27:45.610Z,19.07
2017-09-27T10:30:14.596Z,22.57
2017-09-27T10:32:43.530Z,20.03
2017-09-27T10:35:12.435Z,17.57
2017-09-27T10:37:41.629Z,16.37
2017-09-27T10:40:10.544Z,16.77
2017-09-27T10:42:39.468Z,15.80
2017-09-27T10:45:08.361Z,15.67
2017-09-27T10:47:37.227Z,18.30
2017-09-27T10:50:06.145Z,17.60
2017-09-27T10:52:35.010Z,16.67
2017-09-27T10:55:03.887Z,17.27
2017-09-27T10:57:32.760Z,14.13
2017-09-27T11:00:01.622Z,15.50
2017-09-27T11:02:30.670Z,15.10
2017-09-27T11:04:59.531Z,14.30
2017-09-27T11:07:28.391Z,24.73
2017-09-27T11:09:57.283Z,12.20
2017-09-27T11:12:26.142Z,16.13
2017-09-27T11:14:55.043Z,58.67
2017-09-27T11:17:23.925Z,20.50
2017-09-27T11:19:52.789Z,21.33
2017-09-27T11:22:21.973Z,19.37
2017-09-27T11:24:50.827Z,15.60
2017-09-27T11:27:19.881Z,13.93
2017-09-27T11:29:48.731Z,13.50
2017-09-27T11:32:17.637Z,15.20
2017-09-27T11:34:46.530Z,11.60
2017-09-27T11:37:15.400Z,12.97
2017-09-27T11:39:44.305Z,15.53
2017-09-27T11:42:13.199Z,21.13
2017-09-27T11:44:42.040Z,12.10
2017-09-27T11:47:10.926Z,17.57
2017-09-27T11:49:39.787Z,14.60
2017-09-27T11:52:08.694Z,14.30
2017-09-27T11:54:37.634Z,13.17
2017-09-27T11:57:06.490Z,17.40
2017-09-27T11:59:35.371Z,16.23
2017-09-27T12:02:04.226Z,13.23
2017-09-27T12:04:33.099Z,12.40
2017-09-27T12:07:01.994Z,13.50
2017-09-27T12:09:30.860Z,12.97
2017-09-27T12:11:59.730Z,12.97
2017-09-27T12:14:28.650Z,9.53
2017-09-27T12:16:57.510Z,14.03
2017-09-27T12:19:26.400Z,12.07
2017-09-27T12:21:55.260Z,28.47
2017-09-27T12:24:24.164Z,16.87
2017-09-27T12:26:53.019Z,17.97
2017-09-27T12:29:21.892Z,17.23
2017-09-27T12:31:50.771Z,16.10
2017-09-27T12:34:19.623Z,12.13
2017-09-27T12:36:48.505Z,10.30
2017-09-27T12:39:17.368Z,23.40
2017-09-27T12:41:46.254Z,11.87
2017-09-27T12:44:15.111Z,12.20
2017-09-27T12:46:43.965Z,11.70
2017-09-27T12:49:12.848Z,13.37
2017-09-27T12:51:41.718Z,15.70
2017-09-27T12:54:10.641Z,16.17
2017-09-27T12:56:39.518Z,23.97
2017-09-27T12:59:08.382Z,14.47
2017-09-27T13:01:37.251Z,14.67
2017-09-27T13:04:06.110Z,13.27
2017-09-27T13:06:35.022Z,18.00
2017-09-27T13:09:03.870Z,13.37
2017-09-27T13:11:32.730Z,14.60
2017-09-27T13:14:01.750Z,12.90
2017-09-27T13:16:30.614Z,17.00
2017-09-27T13:18:59.503Z,15.67
2017-09-27T13:21:28.363Z,18.77
2017-09-27T13:23:57.228Z,19.73
2017-09-27T13:26:26.092Z,14.97
2017-09-27T13:28:54.978Z,16.00
2017-09-27T13:31:23.839Z,17.13
2017-09-27T13:33:52.695Z,12.60
2017-09-27T13:36:21.557Z,12.60
2017-09-27T13:38:50.417Z,9.80
2017-09-27T13:41:19.302Z,10.77
2017-09-27T13:43:48.186Z,13.63
2017-09-27T13:46:17.053Z,10.80
2017-09-27T13:48:45.926Z,9.20
2017-09-27T13:51:14.806Z,12.10
2017-09-27T13:53:43.695Z,10.10
2017-09-27T13:56:12.615Z,9.30
2017-09-27T13:58:41.478Z,10.90
2017-09-27T14:01:10.352Z,10.77
2017-09-27T14:03:39.194Z,12.10
2017-09-27T14:06:08.264Z,11.00
2017-09-27T14:08:37.125Z,15.13
2017-09-27T14:11:05.982Z,11.60
2017-09-27T14:13:34.871Z,7.63
2017-09-27T14:16:04.480Z,10.53
2017-09-27T14:18:33.340Z,8.93
2017-09-27T14:21:02.186Z,9.47
2017-09-27T14:23:31.081Z,8.43
2017-09-27T14:25:59.921Z,7.10
2017-09-27T14:28:28.762Z,6.77
2017-09-27T14:30:57.629Z,8.30
2017-09-27T14:33:26.509Z,11.47
2017-09-27T14:35:55.449Z,8.83
2017-09-27T14:38:24.298Z,10.10
2017-09-27T14:40:53.147Z,8.33
2017-09-27T14:43:22.012Z,15.83
2017-09-27T14:45:50.902Z,8.80
2017-09-27T14:48:19.782Z,10.90
2017-09-27T14:50:48.646Z,14.97
2017-09-27T14:53:17.523Z,9.13
2017-09-27T14:55:46.387Z,16.03
2017-09-27T14:58:15.263Z,18.73
2017-09-27T15:00:44.108Z,7.73
2017-09-27T15:03:13.018Z,10.10
2017-09-27T15:05:41.867Z,10.63
2017-09-27T15:08:10.728Z,15.23
2017-09-27T15:10:39.601Z,10.57
2017-09-27T15:13:08.462Z,9.90
2017-09-27T15:15:37.347Z,13.30
2017-09-27T15:18:06.219Z,12.03
2017-09-27T15:20:35.545Z,19.57
2017-09-27T15:23:04.412Z,11.53
2017-09-27T15:25:33.313Z,9.03
2017-09-27T15:28:02.201Z,15.60
2017-09-27T15:30:31.073Z,13.07
2017-09-27T15:32:59.951Z,9.70
2017-09-27T15:35:28.806Z,11.40
2017-09-27T15:37:57.747Z,13.47
2017-09-27T15:40:26.628Z,15.30
2017-09-27T15:42:55.490Z,18.47
2017-09-27T15:45:24.358Z,12.30
2017-09-27T15:47:53.206Z,16.43
2017-09-27T15:50:22.085Z,15.03
2017-09-27T15:52:50.978Z,10.50
2017-09-27T15:55:19.890Z,18.33
2017-09-27T15:57:48.744Z,12.97
2017-09-27T16:00:17.592Z,18.40
2017-09-27T16:02:46.459Z,14.90
2017-09-27T16:05:15.318Z,9.10
2017-09-27T16:07:44.217Z,13.50
2017-09-27T16:10:13.065Z,14.33
2017-09-27T16:12:41.945Z,11.43
2017-09-27T16:15:10.904Z,10.00
2017-09-27T16:17:39.778Z,14.37
2017-09-27T16:20:08.659Z,21.23
2017-09-27T16:22:37.517Z,22.50
2017-09-27T16:25:06.403Z,14.50
2017-09-27T16:27:35.255Z,18.20
2017-09-27T16:30:04.127Z,14.20
2017-09-27T16:32:32.976Z,17.27
2017-09-27T16:35:02.039Z,14.30
2017-09-27T16:37:30.891Z,15.87
2017-09-27T16:39:59.759Z,18.40
2017-09-27T16:42:28.659Z,18.20
2017-09-27T16:44:57.527Z,18.07
2017-09-27T16:47:26.425Z,15.83
2017-09-27T16:49:55.297Z,18.73
2017-09-27T16:52:24.164Z,17.67
2017-09-27T16:54:53.041Z,21.50
2017-09-27T16:57:21.900Z,24.30
2017-09-27T16:59:50.821Z,21.53
2017-09-27T17:02:19.663Z,22.93
2017-09-27T17:04:48.543Z,20.13
2017-09-27T17:07:17.407Z,25.73
2017-09-27T17:09:46.324Z,29.13
2017-09-27T17:12:15.183Z,38.00
2017-09-27T17:14:44.054Z,30.93
2017-09-27T17:17:12.928Z,25.83
2017-09-27T17:19:41.793Z,31.40
2017-09-27T17:22:10.674Z,36.00
2017-09-27T17:24:39.540Z,39.07
2017-09-27T17:27:08.459Z,35.27
2017-09-27T17:29:37.355Z,32.93
2017-09-27T17:32:06.261Z,34.63
2017-09-27T17:34:35.142Z,35.30
2017-09-27T17:37:04.019Z,42.40
2017-09-27T17:39:32.909Z,33.30
2017-09-27T17:42:01.967Z,45.83
2017-09-27T17:44:30.834Z,38.97
2017-09-27T17:46:59.827Z,36.90
2017-09-27T17:49:28.698Z,36.47
2017-09-27T17:51:57.563Z,42.80
2017-09-27T17:54:26.458Z,37.57
2017-09-27T17:56:55.320Z,35.20
2017-09-27T17:59:24.178Z,38.13
2017-09-27T18:01:53.069Z,50.57
2017-09-27T18:04:39.690Z,48.77
2017-09-27T18:07:23.475Z,42.33
2017-09-27T18:09:58.047Z,39.83
2017-09-27T18:12:42.755Z,41.87
2017-09-27T18:15:28.423Z,43.50
2017-09-27T18:18:14.033Z,43.67
2017-09-27T18:20:42.902Z,43.13
2017-09-27T18:23:11.795Z,37.77
2017-09-27T18:25:40.699Z,47.10
2017-09-27T18:28:09.558Z,34.30
2017-09-27T18:30:38.450Z,48.07
2017-09-27T18:33:07.315Z,40.43
2017-09-27T18:35:36.210Z,44.80
2017-09-27T18:38:05.082Z,39.50
2017-09-27T18:40:33.940Z,38.53
2017-09-27T18:43:02.816Z,41.50
2017-09-27T18:45:31.680Z,43.47
2017-09-27T18:48:00.566Z,48.87
2017-09-27T18:50:29.434Z,45.33
2017-09-27T18:52:58.322Z,47.67
2017-09-27T18:55:27.179Z,46.00
2017-09-27T18:57:56.084Z,43.83
2017-09-27T19:00:24.945Z,46.73
2017-09-27T19:02:53.874Z,46.70
2017-09-27T19:05:22.783Z,48.30
2017-09-27T19:07:51.693Z,54.47
2017-09-27T19:10:20.562Z,49.47
2017-09-27T19:12:49.427Z,48.23
2017-09-27T19:15:18.316Z,51.80
2017-09-27T19:17:47.292Z,42.90
2017-09-27T19:20:16.182Z,46.43
2017-09-27T19:22:45.036Z,53.47
2017-09-27T19:25:13.964Z,52.60
2017-09-27T19:27:42.851Z,45.40
2017-09-27T19:30:11.756Z,46.27
2017-09-27T19:32:40.735Z,50.83
2017-09-27T19:35:09.750Z,43.47
2017-09-27T19:37:38.654Z,45.07
2017-09-27T19:40:07.534Z,40.30
2017-09-27T19:42:36.618Z,42.10
2017-09-27T19:45:05.546Z,40.90
2017-09-27T19:47:34.489Z,50.00
2017-09-27T19:50:03.348Z,48.03
2017-09-27T19:52:32.210Z,43.93
2017-09-27T19:55:01.093Z,44.10
2017-09-27T19:57:30.655Z,41.93
2017-09-27T19:59:59.570Z,38.00
2017-09-27T20:02:28.427Z,44.83
2017-09-27T20:04:57.444Z,45.63
2017-09-27T20:07:26.296Z,51.27
2017-09-27T20:09:55.210Z,42.97
2017-09-27T20:12:24.071Z,40.60
2017-09-27T20:14:52.984Z,34.73
2017-09-27T20:17:21.849Z,39.47
2017-09-27T20:19:50.706Z,33.67
2017-09-27T20:22:19.593Z,35.93
2017-09-27T20:24:48.458Z,34.10
2017-09-27T20:27:17.778Z,39.10
2017-09-27T20:29:46.630Z,38.47
2017-09-27T20:32:15.510Z,33.10
2017-09-27T20:34:44.382Z,32.10
2017-09-27T20:37:13.306Z,30.40
2017-09-27T20:39:42.172Z,29.27
2017-09-27T20:42:11.035Z,29.00
2017-09-27T20:44:39.947Z,25.00
2017-09-27T20:47:08.839Z,26.80
2017-09-27T20:49:37.722Z,26.37
2017-09-27T20:52:06.615Z,28.00
2017-09-27T20:54:35.538Z,31.57
2017-09-27T20:57:04.408Z,30.87
2017-09-27T20:59:33.265Z,21.17
2017-09-27T21:02:02.193Z,22.23
2017-09-27T21:04:31.051Z,20.40
2017-09-27T21:06:59.927Z,24.90
2017-09-27T21:09:28.795Z,20.90
2017-09-27T21:11:57.829Z,16.80
2017-09-27T21:14:26.675Z,21.17
2017-09-27T21:16:55.534Z,20.93
2017-09-27T21:19:24.402Z,18.03
2017-09-27T21:21:53.263Z,21.83
2017-09-27T21:24:22.123Z,19.90
2017-09-27T21:26:51.002Z,16.40
2017-09-27T21:29:19.883Z,23.57
2017-09-27T21:31:48.750Z,24.83
2017-09-27T21:34:17.706Z,27.30
2017-09-27T21:36:46.559Z,21.87
2017-09-27T21:39:15.419Z,18.03
2017-09-27T21:41:44.284Z,18.73
2017-09-27T21:44:13.142Z,21.80
2017-09-27T21:46:42.062Z,18.30
2017-09-27T21:49:10.930Z,20.93
2017-09-27T21:51:39.836Z,16.80
2017-09-27T21:54:08.704Z,18.40
2017-09-27T21:56:37.599Z,19.73
2017-09-27T21:59:06.499Z,14.77
2017-09-27T22:01:35.656Z,22.20
2017-09-27T22:04:04.874Z,17.43
2017-09-27T22:06:33.761Z,18.70
2017-09-27T22:09:02.633Z,18.53
2017-09-27T22:11:31.947Z,21.47
2017-09-27T22:14:00.833Z,18.17
2017-09-27T22:16:29.727Z,14.80
2017-09-27T22:18:58.608Z,14.43
2017-09-27T22:21:27.564Z,18.77
2017-09-27T22:23:56.483Z,20.53
2017-09-27T22:26:25.410Z,22.83
2017-09-27T22:28:54.287Z,15.80
2017-09-27T22:31:23.164Z,21.33
2017-09-27T22:33:52.054Z,18.93
2017-09-27T22:36:20.932Z,19.53
2017-09-27T22:38:49.810Z,18.53
2017-09-27T22:41:18.658Z,18.37
2017-09-27T22:43:47.578Z,23.60
2017-09-27T22:46:16.468Z,19.53
2017-09-27T22:48:45.355Z,19.07
2017-09-27T22:51:14.247Z,18.73
2017-09-27T22:53:43.113Z,20.07
2017-09-27T22:56:12.002Z,17.53
2017-09-27T22:58:40.882Z,17.90
2017-09-27T23:01:09.813Z,20.77
2017-09-27T23:03:38.698Z,19.23
2017-09-27T23:06:07.585Z,17.33
2017-09-27T23:08:36.499Z,19.33
2017-09-27T23:11:05.381Z,19.53
2017-09-27T23:13:34.273Z,20.63
2017-09-27T23:16:03.133Z,16.60
2017-09-27T23:18:32.023Z,23.20
2017-09-27T23:21:00.887Z,16.67
2017-09-27T23:23:29.800Z,16.90
2017-09-27T23:25:58.678Z,18.10
2017-09-27T23:28:27.545Z,17.00
2017-09-27T23:30:56.413Z,27.33
2017-09-27T23:33:25.271Z,23.87
2017-09-27T23:35:54.138Z,15.67
2017-09-27T23:38:23.016Z,12.70
2017-09-27T23:40:51.899Z,18.10
2017-09-27T23:43:20.780Z,21.03
2017-09-27T23:45:49.699Z,16.17
2017-09-27T23:48:18.565Z,23.50
2017-09-27T23:50:47.423Z,23.33
2017-09-27T23:53:16.297Z,26.40
2017-09-27T23:55:45.196Z,21.00
2017-09-27T23:58:14.087Z,22.27
